Terminal Aerodrome Forecast
Issued by NWS

Home | Current Version | Previous Version | Text Only | Print | Product List | Glossary On
Versions: 1 2 3 4 5 6 7 8 9 10 11 12 13 14 15 16 17 18 19 20 21 22 23 24 25 26 27 28 29 30 31 32 33 34
659
FTUS44 KHGX 211726
TAFCXO
TAF
KCXO 211726Z 2118/2218 16007KT P6SM SCT020 BKN035
      TEMPO 2118/2120 BKN025
     FM220000 36005KT P6SM BKN035 BKN250
     FM220400 36008KT P6SM VCSH BKN025
     FM221000 36009G19KT P6SM BKN015
     FM221500 36014KT P6SM SCT025=

USA.gov is the U.S. government's official web portal to all federal, state and local government web resources and services.